createdAt,value
2022-10-26T00:01:12.883Z,15.33
2022-10-26T00:03:40.845Z,15.33
2022-10-26T00:06:13.494Z,15.31
2022-10-26T00:08:40.415Z,15.28
2022-10-26T00:11:07.601Z,15.29
2022-10-26T00:13:34.910Z,15.29
2022-10-26T00:16:02.254Z,15.28
2022-10-26T00:18:29.045Z,15.26
2022-10-26T00:20:56.071Z,15.26
2022-10-26T00:23:22.873Z,15.26
2022-10-26T00:25:56.661Z,15.25
2022-10-26T00:28:23.509Z,15.25
2022-10-26T00:30:50.701Z,15.23
2022-10-26T00:33:17.616Z,15.23
2022-10-26T00:35:47.887Z,15.23
2022-10-26T00:38:14.833Z,15.21
2022-10-26T00:40:42.046Z,15.18
2022-10-26T00:43:16.629Z,15.20
2022-10-26T00:45:43.662Z,15.19
2022-10-26T00:48:16.810Z,15.17
2022-10-26T00:50:44.249Z,15.16
2022-10-26T00:53:11.014Z,15.15
2022-10-26T00:55:40.540Z,15.16
2022-10-26T00:58:07.593Z,15.14
2022-10-26T01:00:34.625Z,15.13
2022-10-26T01:03:02.942Z,15.13
2022-10-26T01:05:29.929Z,15.12
2022-10-26T01:07:56.737Z,15.11
2022-10-26T01:10:25.002Z,15.09
2022-10-26T01:12:52.570Z,15.10
2022-10-26T01:15:20.976Z,15.09
2022-10-26T01:17:59.288Z,15.08
2022-10-26T01:20:32.536Z,15.07
2022-10-26T01:23:24.376Z,15.06
2022-10-26T01:26:13.472Z,15.05
2022-10-26T01:29:07.516Z,15.03
2022-10-26T01:31:55.829Z,15.04
2022-10-26T01:34:26.037Z,15.01
2022-10-26T01:36:53.361Z,15.01
2022-10-26T01:39:22.253Z,14.99
2022-10-26T01:41:50.436Z,14.97
2022-10-26T01:44:20.400Z,14.92
2022-10-26T01:46:48.116Z,14.94
2022-10-26T01:49:15.869Z,14.95
2022-10-26T01:51:43.661Z,14.92
2022-10-26T01:54:10.684Z,14.84
2022-10-26T01:56:41.467Z,14.86
2022-10-26T01:59:32.782Z,14.84
2022-10-26T02:02:24.430Z,14.82
2022-10-26T02:05:28.980Z,14.81
2022-10-26T02:08:14.404Z,14.77
2022-10-26T02:10:50.532Z,14.79
2022-10-26T02:13:26.308Z,14.77
2022-10-26T02:16:12.967Z,14.70
2022-10-26T02:19:05.373Z,14.69
2022-10-26T02:21:36.603Z,14.67
2022-10-26T02:24:03.610Z,14.68
2022-10-26T02:26:30.747Z,14.65
2022-10-26T02:29:00.960Z,14.62
2022-10-26T02:31:28.112Z,14.59
2022-10-26T02:33:54.888Z,14.58
2022-10-26T02:36:26.954Z,14.53
2022-10-26T02:38:54.159Z,14.56
2022-10-26T02:41:21.910Z,14.55
2022-10-26T02:43:53.563Z,14.52
2022-10-26T02:46:21.092Z,14.49
2022-10-26T02:48:47.841Z,14.50
2022-10-26T02:51:29.579Z,14.49
2022-10-26T02:54:06.206Z,14.46
2022-10-26T02:56:40.750Z,14.45
2022-10-26T02:59:07.483Z,14.45
2022-10-26T03:01:34.611Z,14.43
2022-10-26T03:04:01.448Z,14.42
2022-10-26T03:06:28.623Z,14.39
2022-10-26T03:08:55.408Z,14.39
2022-10-26T03:11:22.447Z,14.37
2022-10-26T03:13:49.199Z,14.35
2022-10-26T03:16:16.178Z,14.31
2022-10-26T03:18:43.011Z,14.30
2022-10-26T03:21:10.175Z,14.31
2022-10-26T03:23:37.031Z,14.29
2022-10-26T03:26:04.120Z,14.27
2022-10-26T03:28:30.855Z,14.19
2022-10-26T03:30:57.957Z,14.07
2022-10-26T03:33:27.136Z,14.17
2022-10-26T03:35:56.719Z,14.16
2022-10-26T03:38:23.578Z,14.15
2022-10-26T03:40:50.554Z,14.14
2022-10-26T03:43:17.334Z,14.12
2022-10-26T03:45:44.382Z,14.11
2022-10-26T03:48:11.171Z,14.09
2022-10-26T03:50:38.413Z,14.07
2022-10-26T03:53:05.296Z,14.04
2022-10-26T03:55:32.333Z,14.03
2022-10-26T03:57:59.089Z,14.01
2022-10-26T04:00:26.117Z,13.99
2022-10-26T04:02:59.747Z,13.97
2022-10-26T04:05:27.832Z,13.93
2022-10-26T04:07:59.171Z,13.94
2022-10-26T04:10:27.753Z,13.94
2022-10-26T04:12:54.939Z,13.90
2022-10-26T04:15:22.093Z,13.89
2022-10-26T04:17:49.201Z,13.88
2022-10-26T04:20:16.442Z,13.86
2022-10-26T04:22:43.226Z,13.84
2022-10-26T04:25:11.409Z,13.84
2022-10-26T04:27:38.494Z,13.80
2022-10-26T04:30:09.866Z,13.78
2022-10-26T04:32:36.673Z,13.76
2022-10-26T04:35:03.810Z,13.70
2022-10-26T04:37:30.593Z,13.67
2022-10-26T04:39:57.643Z,13.78
2022-10-26T04:42:24.496Z,13.86
2022-10-26T04:44:51.478Z,13.97
2022-10-26T04:47:18.245Z,13.94
2022-10-26T04:49:45.399Z,13.92
2022-10-26T04:52:12.269Z,13.87
2022-10-26T04:54:39.281Z,13.81
2022-10-26T04:57:06.189Z,13.75
2022-10-26T04:59:33.185Z,13.72
2022-10-26T05:02:00.089Z,13.71
2022-10-26T05:04:27.181Z,13.66
2022-10-26T05:06:54.037Z,13.65
2022-10-26T05:09:21.001Z,13.63
2022-10-26T05:11:47.846Z,13.55
2022-10-26T05:14:14.841Z,13.58
2022-10-26T05:16:41.648Z,13.58
2022-10-26T05:19:08.701Z,13.55
2022-10-26T05:21:35.526Z,13.51
2022-10-26T05:24:02.641Z,13.46
2022-10-26T05:26:29.742Z,13.47
2022-10-26T05:28:56.817Z,13.45
2022-10-26T05:31:23.760Z,13.47
2022-10-26T05:33:51.256Z,13.44
2022-10-26T05:36:18.724Z,13.42
2022-10-26T05:38:46.121Z,13.39
2022-10-26T05:41:13.036Z,13.40
2022-10-26T05:43:40.074Z,13.38
2022-10-26T05:46:06.861Z,13.36
2022-10-26T05:48:33.879Z,13.34
2022-10-26T05:51:01.414Z,13.33
2022-10-26T05:53:28.697Z,13.31
2022-10-26T05:55:56.539Z,13.30
2022-10-26T05:58:23.888Z,13.28
2022-10-26T06:00:56.825Z,13.26
2022-10-26T06:03:53.564Z,13.24
2022-10-26T06:06:21.280Z,13.25
2022-10-26T06:08:48.523Z,13.23
2022-10-26T06:11:15.512Z,13.24
2022-10-26T06:13:42.680Z,13.23
2022-10-26T06:16:22.408Z,13.20
2022-10-26T06:19:21.592Z,13.20
2022-10-26T06:21:55.789Z,13.18
2022-10-26T06:24:29.267Z,13.15
2022-10-26T06:26:56.037Z,13.10
2022-10-26T06:29:51.113Z,13.05
2022-10-26T06:32:17.937Z,13.08
2022-10-26T06:34:47.052Z,13.08
2022-10-26T06:37:14.068Z,13.07
2022-10-26T06:39:48.880Z,13.07
2022-10-26T06:42:18.507Z,13.08
2022-10-26T06:44:45.795Z,13.10
2022-10-26T06:47:31.238Z,13.14
2022-10-26T06:50:17.023Z,13.13
2022-10-26T06:52:46.734Z,13.17
2022-10-26T06:55:14.674Z,13.17
2022-10-26T06:57:41.482Z,13.21
2022-10-26T07:00:13.432Z,13.26
2022-10-26T07:02:40.206Z,13.30
2022-10-26T07:05:12.774Z,13.32
2022-10-26T07:07:43.783Z,13.35
2022-10-26T07:10:11.207Z,13.39
2022-10-26T07:12:38.234Z,13.44
2022-10-26T07:15:06.328Z,13.46
2022-10-26T07:17:46.484Z,13.52
2022-10-26T07:20:14.272Z,13.55
2022-10-26T07:22:42.775Z,13.58
2022-10-26T07:25:10.117Z,13.63
2022-10-26T07:27:36.885Z,13.68
2022-10-26T07:30:04.836Z,13.72
2022-10-26T07:32:31.640Z,13.77
2022-10-26T07:34:58.672Z,13.81
2022-10-26T07:37:25.465Z,13.85
2022-10-26T07:39:52.434Z,13.88
2022-10-26T07:42:19.198Z,13.92
2022-10-26T07:44:46.339Z,13.98
2022-10-26T07:47:13.130Z,14.01
2022-10-26T07:49:40.462Z,14.07
2022-10-26T07:52:07.286Z,14.12
2022-10-26T07:54:34.277Z,14.17
2022-10-26T07:57:01.188Z,14.22
2022-10-26T07:59:28.351Z,14.26
2022-10-26T08:01:55.150Z,14.31
2022-10-26T08:04:22.235Z,14.37
2022-10-26T08:06:49.025Z,14.42
2022-10-26T08:09:16.030Z,14.46
2022-10-26T08:11:42.805Z,14.52
2022-10-26T08:14:10.817Z,14.55
2022-10-26T08:16:40.251Z,14.62
2022-10-26T08:19:07.536Z,14.66
2022-10-26T08:21:40.119Z,14.73
2022-10-26T08:24:08.177Z,14.78
2022-10-26T08:26:34.948Z,14.84
2022-10-26T08:29:02.076Z,14.92
2022-10-26T08:31:28.915Z,14.97
2022-10-26T08:33:55.899Z,15.04
2022-10-26T08:36:26.327Z,15.09
2022-10-26T08:38:53.481Z,15.14
2022-10-26T08:41:21.895Z,15.22
2022-10-26T08:43:57.167Z,15.28
2022-10-26T08:46:29.947Z,15.34
2022-10-26T08:49:24.754Z,15.42
2022-10-26T08:51:53.383Z,15.50
2022-10-26T08:54:28.456Z,15.55
2022-10-26T08:57:03.083Z,15.64
2022-10-26T08:59:39.263Z,15.68
2022-10-26T09:02:12.771Z,15.77
2022-10-26T09:04:40.121Z,15.85
2022-10-26T09:07:28.194Z,15.93
2022-10-26T09:10:13.572Z,16.01
2022-10-26T09:12:49.953Z,16.07
2022-10-26T09:15:29.343Z,16.15
2022-10-26T09:18:13.974Z,16.24
2022-10-26T09:20:43.874Z,16.29
2022-10-26T09:23:38.030Z,16.40
2022-10-26T09:26:06.352Z,16.48
2022-10-26T09:28:34.962Z,16.55
2022-10-26T09:31:02.485Z,16.66
2022-10-26T09:33:29.420Z,16.73
2022-10-26T09:36:01.518Z,16.80
2022-10-26T09:38:47.830Z,16.87
2022-10-26T09:41:21.506Z,16.98
2022-10-26T09:43:55.594Z,17.10
2022-10-26T09:46:26.298Z,17.17
2022-10-26T09:48:56.120Z,17.25
2022-10-26T09:51:24.005Z,17.33
2022-10-26T09:53:50.789Z,17.39
2022-10-26T09:56:17.769Z,17.50
2022-10-26T09:58:52.755Z,17.59
2022-10-26T10:01:22.870Z,17.67
2022-10-26T10:03:49.659Z,17.72
2022-10-26T10:06:20.109Z,17.77
2022-10-26T10:09:11.756Z,17.90
2022-10-26T10:11:54.820Z,17.97
2022-10-26T10:14:23.401Z,18.09
2022-10-26T10:16:58.125Z,18.17
2022-10-26T10:19:35.228Z,18.25
2022-10-26T10:22:09.897Z,18.29
2022-10-26T10:24:37.279Z,18.35
2022-10-26T10:27:15.146Z,18.41
2022-10-26T10:29:51.847Z,18.47
2022-10-26T10:32:23.310Z,18.52
2022-10-26T10:34:50.882Z,18.57
2022-10-26T10:37:46.938Z,18.66
2022-10-26T10:40:21.491Z,18.71
2022-10-26T10:42:49.033Z,18.73
2022-10-26T10:45:23.763Z,18.79
2022-10-26T10:48:06.260Z,18.86
2022-10-26T10:50:33.395Z,18.88
2022-10-26T10:53:20.078Z,18.95
2022-10-26T10:56:18.435Z,18.97
2022-10-26T10:59:00.745Z,19.05
2022-10-26T11:01:35.605Z,19.08
2022-10-26T11:04:55.884Z,19.17
2022-10-26T11:07:22.641Z,19.20
2022-10-26T11:09:49.618Z,19.25
2022-10-26T11:12:23.656Z,19.28
2022-10-26T11:15:12.924Z,19.36
2022-10-26T11:17:52.282Z,19.42
2022-10-26T11:20:21.200Z,19.48
2022-10-26T11:23:00.347Z,19.54
2022-10-26T11:25:29.871Z,19.56
2022-10-26T11:27:59.553Z,19.61
2022-10-26T11:30:26.816Z,19.67
2022-10-26T11:32:56.876Z,19.70
2022-10-26T11:35:32.972Z,19.75
2022-10-26T11:38:23.948Z,19.78
2022-10-26T11:41:19.591Z,19.86
2022-10-26T11:43:48.063Z,19.91
2022-10-26T11:47:08.539Z,19.94
2022-10-26T11:49:44.383Z,19.99
2022-10-26T11:52:24.350Z,20.04
2022-10-26T11:54:55.777Z,20.06
2022-10-26T11:57:23.557Z,20.12
2022-10-26T11:59:52.602Z,20.15
2022-10-26T12:02:26.367Z,20.19
2022-10-26T12:04:56.726Z,20.22
2022-10-26T12:07:35.856Z,20.25
2022-10-26T12:10:03.135Z,20.28
2022-10-26T12:12:37.361Z,20.30
2022-10-26T12:16:02.221Z,20.33
2022-10-26T12:18:54.919Z,20.36
2022-10-26T12:21:25.133Z,20.38
2022-10-26T12:26:23.037Z,20.45
2022-10-26T12:29:14.131Z,20.48
2022-10-26T12:31:42.594Z,20.49
2022-10-26T12:34:14.277Z,20.52
2022-10-26T12:36:56.552Z,20.55
2022-10-26T12:39:29.573Z,20.60
2022-10-26T12:42:10.529Z,20.61
2022-10-26T12:44:45.659Z,20.68
2022-10-26T12:47:27.654Z,20.69
2022-10-26T12:50:06.847Z,20.72
2022-10-26T12:52:49.171Z,20.71
2022-10-26T12:55:46.922Z,20.73
2022-10-26T12:58:27.325Z,20.77
2022-10-26T13:01:00.603Z,20.78
2022-10-26T13:03:27.356Z,20.78
2022-10-26T13:06:06.429Z,20.79
2022-10-26T13:08:40.925Z,20.82
2022-10-26T13:11:19.184Z,20.81
2022-10-26T13:13:52.212Z,20.84
2022-10-26T13:16:19.244Z,20.83
2022-10-26T13:18:48.145Z,20.86
2022-10-26T13:21:18.952Z,20.89
2022-10-26T13:23:47.474Z,20.90
2022-10-26T13:26:18.824Z,20.91
2022-10-26T13:28:50.661Z,20.94
2022-10-26T13:31:32.901Z,20.97
2022-10-26T13:34:19.543Z,20.97
2022-10-26T13:37:05.424Z,20.99
2022-10-26T13:39:37.592Z,21.02
2022-10-26T13:42:05.315Z,21.02
2022-10-26T13:44:53.998Z,21.02
2022-10-26T13:47:24.029Z,21.05
2022-10-26T13:49:52.190Z,21.07
2022-10-26T13:52:26.109Z,21.09
2022-10-26T13:54:57.294Z,21.10
2022-10-26T13:57:34.138Z,21.13
2022-10-26T14:00:03.958Z,21.13
2022-10-26T14:02:31.598Z,21.16
2022-10-26T14:05:05.143Z,21.15
2022-10-26T14:07:55.622Z,21.21
2022-10-26T14:10:28.993Z,21.23
2022-10-26T14:12:56.701Z,21.24
2022-10-26T14:15:25.218Z,21.26
2022-10-26T14:17:52.971Z,21.26
2022-10-26T14:20:21.821Z,21.27
2022-10-26T14:22:48.853Z,21.26
2022-10-26T14:25:23.516Z,21.27
2022-10-26T14:27:58.263Z,21.26
2022-10-26T14:30:29.905Z,21.26
2022-10-26T14:32:57.366Z,21.25
2022-10-26T14:35:26.113Z,21.27
2022-10-26T14:37:56.136Z,21.26
2022-10-26T14:40:25.204Z,21.25
2022-10-26T14:42:54.823Z,21.25
2022-10-26T14:45:48.223Z,21.24
2022-10-26T14:48:24.278Z,21.24
2022-10-26T14:50:59.346Z,21.22
2022-10-26T14:53:41.781Z,21.22
2022-10-26T14:56:28.958Z,21.27
2022-10-26T14:58:56.211Z,21.28
2022-10-26T15:01:23.230Z,21.26
2022-10-26T15:04:01.507Z,21.22
2022-10-26T15:06:28.699Z,21.19
2022-10-26T15:08:59.766Z,21.17
2022-10-26T15:11:27.252Z,21.15
2022-10-26T15:13:54.376Z,21.12
2022-10-26T15:16:24.927Z,21.08
2022-10-26T15:18:53.959Z,21.05
2022-10-26T15:21:30.624Z,21.03
2022-10-26T15:23:57.536Z,20.99
2022-10-26T15:26:24.728Z,20.97
2022-10-26T15:28:52.840Z,20.94
2022-10-26T15:31:19.953Z,20.90
2022-10-26T15:33:50.740Z,20.87
2022-10-26T15:36:18.764Z,20.84
2022-10-26T15:38:46.239Z,20.82
2022-10-26T15:41:32.794Z,20.77
2022-10-26T15:44:05.926Z,20.72
2022-10-26T15:46:34.379Z,20.68
2022-10-26T15:49:03.395Z,20.63
2022-10-26T15:51:30.421Z,20.56
2022-10-26T15:53:58.550Z,20.53
2022-10-26T15:56:25.887Z,20.48
2022-10-26T16:01:21.881Z,20.38
2022-10-26T16:03:49.179Z,20.34
2022-10-26T16:06:17.037Z,20.30
2022-10-26T16:08:46.270Z,20.27
2022-10-26T16:11:13.024Z,20.23
2022-10-26T16:13:40.071Z,20.19
2022-10-26T16:16:12.267Z,20.14
2022-10-26T16:18:39.299Z,20.09
2022-10-26T16:21:06.109Z,20.05
2022-10-26T16:23:33.132Z,20.01
2022-10-26T16:25:59.899Z,19.96
2022-10-26T16:28:26.902Z,19.93
2022-10-26T16:31:01.336Z,19.88
2022-10-26T16:33:28.537Z,19.84
2022-10-26T16:35:59.336Z,19.80
2022-10-26T16:38:26.607Z,19.76
2022-10-26T16:41:08.597Z,19.70
2022-10-26T16:43:40.325Z,19.67
2022-10-26T16:46:15.486Z,19.63
2022-10-26T16:48:44.106Z,19.58
2022-10-26T16:51:12.609Z,19.55
2022-10-26T16:53:39.853Z,19.49
2022-10-26T16:56:14.288Z,19.46
2022-10-26T16:58:41.549Z,19.41
2022-10-26T17:01:08.543Z,19.36
2022-10-26T17:03:35.715Z,19.34
2022-10-26T17:06:04.145Z,19.28
2022-10-26T17:08:31.987Z,19.24
2022-10-26T17:11:06.184Z,19.21
2022-10-26T17:13:33.197Z,19.17
2022-10-26T17:16:07.532Z,19.13
2022-10-26T17:18:34.559Z,19.09
2022-10-26T17:21:01.288Z,19.04
2022-10-26T17:23:28.371Z,19.01
2022-10-26T17:25:55.164Z,18.97
2022-10-26T17:28:22.228Z,18.93
2022-10-26T17:30:49.083Z,18.89
2022-10-26T17:33:16.119Z,18.86
2022-10-26T17:35:42.908Z,18.82
2022-10-26T17:38:09.871Z,18.76
2022-10-26T17:40:36.611Z,18.74
2022-10-26T17:43:03.646Z,18.70
2022-10-26T17:45:30.393Z,18.65
2022-10-26T17:47:57.371Z,18.62
2022-10-26T17:50:24.126Z,18.57
2022-10-26T17:52:51.123Z,18.54
2022-10-26T17:55:17.891Z,18.51
2022-10-26T17:57:44.915Z,18.48
2022-10-26T18:00:12.531Z,18.43
2022-10-26T18:02:40.194Z,18.41
2022-10-26T18:05:07.979Z,18.38
2022-10-26T18:07:35.074Z,18.32
2022-10-26T18:10:14.094Z,18.28
2022-10-26T18:12:49.213Z,18.26
2022-10-26T18:15:16.422Z,18.21
2022-10-26T18:17:45.181Z,18.16
2022-10-26T18:20:11.972Z,18.14
2022-10-26T18:22:38.993Z,18.10
2022-10-26T18:25:05.980Z,18.06
2022-10-26T18:27:32.938Z,18.02
2022-10-26T18:29:59.686Z,17.98
2022-10-26T18:32:27.502Z,17.94
2022-10-26T18:34:55.285Z,17.90
2022-10-26T18:37:22.551Z,17.87
2022-10-26T18:39:49.327Z,17.84
2022-10-26T18:42:16.403Z,17.80
2022-10-26T18:47:42.783Z,17.73
2022-10-26T18:50:10.122Z,17.69
2022-10-26T18:52:37.030Z,17.67
2022-10-26T18:55:05.199Z,17.63
2022-10-26T18:57:31.961Z,17.57
2022-10-26T18:59:58.965Z,17.54
2022-10-26T19:02:25.713Z,17.51
2022-10-26T19:04:53.716Z,17.48
2022-10-26T19:07:20.504Z,17.44
2022-10-26T19:09:47.594Z,17.42
2022-10-26T19:12:14.328Z,17.39
2022-10-26T19:14:41.313Z,17.35
2022-10-26T19:17:08.082Z,17.33
2022-10-26T19:19:35.098Z,17.30
2022-10-26T19:22:01.897Z,17.27
2022-10-26T19:24:29.045Z,17.24
2022-10-26T19:26:56.646Z,17.20
2022-10-26T19:29:23.683Z,17.18
2022-10-26T19:31:51.979Z,17.16
2022-10-26T19:34:19.087Z,17.14
2022-10-26T19:36:47.127Z,17.10
2022-10-26T19:39:17.611Z,17.06
2022-10-26T19:41:45.237Z,17.04
2022-10-26T19:44:12.555Z,17.01
2022-10-26T19:46:39.679Z,16.98
2022-10-26T19:49:06.990Z,16.96
2022-10-26T19:51:33.805Z,16.94
2022-10-26T19:54:04.007Z,16.92
2022-10-26T19:56:34.592Z,16.87
2022-10-26T19:59:01.757Z,16.85
2022-10-26T20:01:28.682Z,16.82
2022-10-26T20:03:55.744Z,16.80
2022-10-26T20:06:22.564Z,16.78
2022-10-26T20:08:49.825Z,16.74
2022-10-26T20:11:17.774Z,16.72
2022-10-26T20:13:45.404Z,16.69
2022-10-26T20:16:12.355Z,16.68
2022-10-26T20:18:43.966Z,16.66
2022-10-26T20:21:14.519Z,16.61
2022-10-26T20:23:41.848Z,16.61
2022-10-26T20:26:08.634Z,16.58
2022-10-26T20:28:35.712Z,16.56
2022-10-26T20:31:02.492Z,16.54
2022-10-26T20:33:29.496Z,16.50
2022-10-26T20:35:59.809Z,16.48
2022-10-26T20:38:27.225Z,16.45
2022-10-26T20:40:58.321Z,16.42
2022-10-26T20:43:26.264Z,16.40
2022-10-26T20:45:53.457Z,16.38
2022-10-26T20:48:20.692Z,16.36
2022-10-26T20:50:55.255Z,16.32
2022-10-26T20:53:53.623Z,16.30
2022-10-26T20:56:23.806Z,16.28
2022-10-26T20:58:55.828Z,16.24
2022-10-26T21:01:25.507Z,16.22
2022-10-26T21:03:53.355Z,16.16
2022-10-26T21:06:20.230Z,16.16
2022-10-26T21:08:51.055Z,16.13
2022-10-26T21:11:18.339Z,16.09
2022-10-26T21:13:45.999Z,16.10
2022-10-26T21:16:12.826Z,16.05
2022-10-26T21:18:39.867Z,16.05
2022-10-26T21:21:06.779Z,16.02
2022-10-26T21:23:35.450Z,16.00
2022-10-26T21:26:02.473Z,15.96
2022-10-26T21:28:42.831Z,15.96
2022-10-26T21:31:10.545Z,15.94
2022-10-26T21:33:37.881Z,15.90
2022-10-26T21:36:06.066Z,15.88
2022-10-26T21:38:33.217Z,15.84
2022-10-26T21:41:16.593Z,15.81
2022-10-26T21:43:46.043Z,15.78
2022-10-26T21:46:12.849Z,15.69
2022-10-26T21:48:42.999Z,15.72
2022-10-26T21:51:17.113Z,15.74
2022-10-26T21:53:44.277Z,15.70
2022-10-26T21:56:16.085Z,15.67
2022-10-26T21:58:43.131Z,15.67
2022-10-26T22:01:10.780Z,15.56
2022-10-26T22:03:38.151Z,15.58
2022-10-26T22:06:05.217Z,15.56
2022-10-26T22:08:32.261Z,15.55
2022-10-26T22:10:59.084Z,15.54
2022-10-26T22:13:26.177Z,15.51
2022-10-26T22:16:10.225Z,15.52
2022-10-26T22:18:38.129Z,15.48
2022-10-26T22:21:05.089Z,15.48
2022-10-26T22:23:33.992Z,15.47
2022-10-26T22:26:11.445Z,15.44
2022-10-26T22:28:42.447Z,15.45
2022-10-26T22:31:14.655Z,15.39
2022-10-26T22:33:42.161Z,15.39
2022-10-26T22:36:13.812Z,15.37
2022-10-26T22:38:40.950Z,15.36
2022-10-26T22:41:08.013Z,15.35
2022-10-26T22:43:35.545Z,15.31
2022-10-26T22:46:06.952Z,15.29
2022-10-26T22:48:34.196Z,15.26
2022-10-26T22:51:19.932Z,15.27
2022-10-26T22:53:47.228Z,15.24
2022-10-26T22:56:14.169Z,15.24
2022-10-26T22:58:41.270Z,15.23
2022-10-26T23:01:08.096Z,15.19
2022-10-26T23:03:35.199Z,15.17
2022-10-26T23:06:02.295Z,15.14
2022-10-26T23:08:29.476Z,15.14
2022-10-26T23:11:00.225Z,15.14
2022-10-26T23:13:27.715Z,15.12
2022-10-26T23:15:54.837Z,15.09
2022-10-26T23:18:22.574Z,15.08
2022-10-26T23:20:50.228Z,14.97
2022-10-26T23:23:17.860Z,15.01
2022-10-26T23:25:44.757Z,14.99
2022-10-26T23:28:12.025Z,14.95
2022-10-26T23:30:38.896Z,14.97
2022-10-26T23:33:05.963Z,14.91
2022-10-26T23:35:32.819Z,14.94
2022-10-26T23:37:59.936Z,14.93
2022-10-26T23:40:27.282Z,14.88
2022-10-26T23:42:54.369Z,14.86
2022-10-26T23:45:21.598Z,14.88
2022-10-26T23:47:48.959Z,14.80
2022-10-26T23:50:16.150Z,14.74
2022-10-26T23:52:49.735Z,14.81
2022-10-26T23:55:16.761Z,14.78
2022-10-26T23:57:43.764Z,14.77
